Hurricane Symbol View the latest observations near Atlantic Potential Tropical Cyclone One.

Station TBIM4 - Thunder Bay Island, MI Image indicating link to RSS feed of recent meteorological observations for station TBIM4


Conditions at TBIM4 as of
(10:00 pm EDT on 06/18/2024)
0200 GMT on 06/19/2024:
     

Click on the graph icon in the table below to see a time series plot of the last five days of that observation.

5-day plot - Wind Direction Wind Direction (WDIR): S ( 180 deg true )
5-day plot - Wind Speed Wind Speed (WSPD): 13 kts
5-day plot - Wind Gust Wind Gust (GST): 13 kts
5-day plot - Air Temperature Air Temperature (ATMP): 65.8 °F
5-day plot -  Wind Speed, Wind Gust and Atmospheric Pressure Combined plot of Wind Speed, Gust, and Air Pressure
Previous observations
TIME
(EDT)
5-day plot - Wind Direction
WDIR
 
5-day plot - Wind Speed
WSPD
kts
5-day plot - Wind Gust
GST
kts
5-day plot - Wave Height
WVHT
ft
5-day plot - Dominant Wave Period
DPD
sec
5-day plot - Average Wave Period
APD
sec
5-day plot - Mean Wave Direction
MWD
 
5-day plot - Atmospheric Pressure
PRES
in
5-day plot - Pressure Tendency
PTDY
in
5-day plot - Air Temperature
ATMP
°F
5-day plot - Water Temperature
WTMP
°F
5-day plot - Dew Point
DEWP
°F
5-day plot - Salinity
SAL
psu
5-day plot - Visibility
VIS
nmi
5-day plot - Tide (above MLLW)
TIDE
ft
2024-06-18 09:50 pm S 13 14------ 66.2-----
2024-06-18 09:40 pm S 13 15------ 66.6-----
2024-06-18 09:00 pm S 15 16------ 67.3-----
2024-06-18 08:50 pm S 15 16------ 67.1-----
2024-06-18 08:40 pm S 14 15------ 66.7-----
2024-06-18 08:30 pm S 14 15------ 66.6-----
2024-06-18 08:20 pm S 15 16------ 67.5-----
2024-06-18 08:10 pm S 15 16------ 67.5-----
2024-06-18 07:00 pm S 15 16------ 68.4-----
2024-06-18 06:50 pm S 14 15------ 67.6-----
2024-06-18 06:40 pm S 17 18------ 68.4-----
2024-06-18 06:30 pm S 17 18------ 68.2-----
2024-06-18 06:20 pm S 17 18------ 67.8-----
2024-06-18 06:10 pm S 16 18------ 68.2-----
2024-06-18 06:00 pm S 14 15------ 68.5-----
2024-06-18 05:50 pm S 14 15------ 68.2-----
2024-06-18 05:40 pmSSE 12 15------ 67.1-----
2024-06-18 05:30 pmSSE 13 15------ 67.5-----
2024-06-18 05:20 pmSSE 14 15------ 69.3-----
2024-06-18 05:10 pm S 13 14------ 69.1-----
2024-06-18 04:30 pm S 14 14------ 68.2-----
2024-06-18 04:20 pm S 14 15------ 67.5-----
2024-06-18 04:10 pm S 14 15------ 67.3-----
2024-06-18 04:00 pm S 16 17------ 67.6-----
2024-06-18 03:50 pm S 15 17------ 67.3-----
2024-06-18 03:40 pm S 13 14------ 67.1-----
2024-06-18 03:30 pm S 14 16------ 67.6-----
2024-06-18 03:20 pm S 14 16------ 67.1-----
2024-06-18 03:10 pm S 12 13------ 67.3-----
2024-06-18 02:00 pm S 16 18------ 67.6-----
2024-06-18 01:50 pm S 17 19------ 66.7-----
2024-06-18 01:40 pm S 16 18------ 67.5-----
2024-06-18 01:30 pm S 17 19------ 67.3-----
2024-06-18 01:20 pm S 15 17------ 67.3-----
2024-06-18 01:10 pm S 14 16------ 67.3-----
2024-06-18 01:00 pm S 12 14------ 67.5-----
2024-06-18 12:50 pm S 10 12------ 66.9-----
2024-06-18 12:40 pm S 13 14------ 68.2-----
2024-06-18 12:30 pm S 10 13------ 69.1-----
2024-06-18 12:20 pm S 9 12------ 68.7-----
2024-06-18 12:10 pm S 10 13------ 68.4-----
2024-06-18 12:00 pm S 11 12------ 68.7-----
2024-06-18 11:50 am S 13 15------ 68.5-----
2024-06-18 11:40 am S 14 16------ 68.2-----
2024-06-18 11:30 am S 11 13------ 67.8-----
2024-06-18 11:20 am S 12 14------ 66.7-----
2024-06-18 11:10 am S 11 13------ 67.1-----
2024-06-18 11:00 am S 9 10------ 67.5-----
2024-06-18 10:50 am S 11 12------ 66.7-----
2024-06-18 10:40 am S 9 12------ 66.2-----
2024-06-18 10:00 am S 12 14------ 64.4-----
2024-06-18 09:50 am S 14 15------ 64.0-----
2024-06-18 09:40 am S 13 15------ 64.6-----
2024-06-18 09:30 am S 14 16------ 65.5-----
2024-06-18 09:20 am S 16 17------ 64.9-----
2024-06-18 09:10 am S 15 16------ 65.3-----
2024-06-18 09:00 am S 11 13------ 65.1-----
2024-06-18 08:50 am S 15 16------ 65.1-----
2024-06-18 08:40 am S 16 17------ 64.9-----
2024-06-18 08:00 am S 13 15------ 64.8-----
2024-06-18 07:50 amSSE 11 12------ 65.3-----
2024-06-18 07:40 amSSE 12 13------ 65.7-----
2024-06-18 07:30 amSSE 11 13------ 63.0-----
2024-06-18 07:20 am S 12 14------ 63.9-----
2024-06-18 07:10 am S 11 12------ 64.2-----
2024-06-18 07:00 am S 10 11------ 64.2-----
2024-06-18 06:50 am S 10 11------ 64.0-----
2024-06-18 06:40 am S 11 12------ 64.0-----
2024-06-18 06:30 am S 8 8------ 63.1-----
2024-06-18 06:20 am S 9 9------ 63.7-----
2024-06-18 06:10 am S 9 10------ 63.5-----
2024-06-18 06:00 amSSW 9 10------ 64.2-----
2024-06-18 05:50 am S 10 11------ 65.1-----
2024-06-18 05:40 amSSW 11 12------ 65.7-----
2024-06-18 05:30 am S 10 11------ 65.5-----
2024-06-18 05:20 am S 11 13------ 65.7-----
2024-06-18 05:10 am S 12 13------ 64.8-----
2024-06-18 05:00 am S 12 13------ 64.2-----
2024-06-18 04:50 am S 13 14------ 64.4-----
2024-06-18 04:40 am S 13 14------ 63.5-----
2024-06-18 04:00 am S 13 14------ 64.9-----
2024-06-18 03:50 am S 15 16------ 66.7-----
2024-06-18 03:40 am S 14 14------ 64.8-----
2024-06-18 03:30 am S 12 13------ 64.2-----
2024-06-18 03:20 am S 12 12------ 63.7-----
2024-06-18 03:10 am S 10 10------ 63.0-----
2024-06-18 03:00 am S 8 9------ 63.0-----
2024-06-18 02:50 am S 9 10------ 62.1-----
2024-06-18 02:40 am S 9 10------ 62.1-----
2024-06-18 02:30 am S 8 10------ 62.1-----
2024-06-18 02:20 am S 5 6------ 61.7-----
2024-06-18 02:10 am S 6 6------ 61.7-----
2024-06-18 02:00 am S 6 6------ 61.7-----
2024-06-18 01:50 am S 5 6------ 61.7-----
2024-06-18 01:40 am S 5 6------ 61.5-----
2024-06-18 01:00 amWSW 4 5------ 61.9-----
2024-06-18 12:50 am W 4 5------ 61.3-----
2024-06-18 12:40 am W 4 4------ 61.2-----
2024-06-18 12:00 am S 2 2------ 62.1-----
2024-06-17 11:50 pmSSE 3 3------ 61.7-----
2024-06-17 11:40 pmESE 3 4------ 61.3-----
2024-06-17 11:30 pm SE 4 4------ 61.3-----
2024-06-17 11:20 pmESE 4 4------ 61.2-----
2024-06-17 11:10 pmESE 4 4------ 61.3-----
2024-06-17 11:00 pm E 3 3------ 61.7-----
2024-06-17 10:50 pm NE 3 4------ 61.9-----